createdAt,value
2023-03-09T00:01:38.849Z,52.93
2023-03-09T00:04:09.388Z,52.72
2023-03-09T00:06:39.042Z,53.45
2023-03-09T00:09:08.968Z,53.33
2023-03-09T00:11:37.210Z,52.66
2023-03-09T00:14:06.339Z,52.98
2023-03-09T00:16:34.671Z,53.03
2023-03-09T00:19:03.464Z,53.66
2023-03-09T00:21:39.787Z,53.07
2023-03-09T00:24:11.801Z,52.90
2023-03-09T00:26:41.774Z,53.17
2023-03-09T00:29:11.519Z,52.56
2023-03-09T00:31:40.768Z,52.13
2023-03-09T00:34:09.878Z,52.28
2023-03-09T00:36:38.865Z,52.75
2023-03-09T00:39:07.761Z,52.37
2023-03-09T00:41:37.464Z,52.07
2023-03-09T00:44:07.694Z,52.33
2023-03-09T00:46:36.461Z,52.77
2023-03-09T00:49:07.558Z,52.10
2023-03-09T00:51:37.375Z,52.88
2023-03-09T00:54:06.985Z,52.14
2023-03-09T00:56:36.968Z,51.84
2023-03-09T00:59:05.992Z,52.29
2023-03-09T01:01:34.552Z,52.65
2023-03-09T01:04:04.054Z,52.19
2023-03-09T01:06:33.403Z,52.84
2023-03-09T01:09:02.423Z,52.54
2023-03-09T01:11:32.135Z,53.02
2023-03-09T01:14:02.048Z,53.31
2023-03-09T01:16:30.751Z,53.61
2023-03-09T01:18:59.202Z,53.63
2023-03-09T01:21:27.359Z,53.23
2023-03-09T01:23:57.272Z,53.51
2023-03-09T01:26:25.550Z,53.60
2023-03-09T01:28:53.763Z,53.62
2023-03-09T01:31:23.417Z,53.51
2023-03-09T01:33:52.636Z,53.57
2023-03-09T01:36:21.596Z,53.97
2023-03-09T01:38:50.233Z,53.86
2023-03-09T01:41:20.663Z,52.90
2023-03-09T01:43:50.389Z,53.76
2023-03-09T01:46:49.854Z,53.38
2023-03-09T01:49:33.597Z,53.38
2023-03-09T01:52:11.512Z,53.64
2023-03-09T01:54:46.257Z,54.73
2023-03-09T01:57:20.452Z,54.54
2023-03-09T01:59:50.962Z,54.88
2023-03-09T02:02:24.007Z,54.54
2023-03-09T02:04:58.901Z,54.89
2023-03-09T02:07:28.349Z,54.73
2023-03-09T02:10:02.819Z,54.35
2023-03-09T02:12:33.198Z,54.45
2023-03-09T02:15:05.536Z,54.24
2023-03-09T02:17:36.402Z,54.23
2023-03-09T02:20:14.359Z,54.60
2023-03-09T02:22:45.026Z,54.46
2023-03-09T02:25:23.719Z,54.36
2023-03-09T02:27:55.046Z,54.33
2023-03-09T02:30:26.366Z,54.50
2023-03-09T02:33:05.596Z,54.31
2023-03-09T02:35:35.318Z,54.33
2023-03-09T02:38:04.422Z,54.74
2023-03-09T02:40:39.344Z,54.59
2023-03-09T02:43:14.728Z,55.13
2023-03-09T02:45:45.254Z,54.92
2023-03-09T02:48:14.301Z,54.20
2023-03-09T02:50:44.203Z,54.98
2023-03-09T02:53:13.263Z,54.80
2023-03-09T02:55:41.856Z,55.21
2023-03-09T02:58:13.824Z,54.92
2023-03-09T03:00:42.097Z,55.01
2023-03-09T03:03:10.740Z,55.24
2023-03-09T03:05:39.221Z,55.02
2023-03-09T03:08:08.551Z,54.84
2023-03-09T03:10:36.773Z,53.94
2023-03-09T03:13:06.557Z,55.22
2023-03-09T03:15:36.626Z,54.92
2023-03-09T03:18:06.692Z,54.29
2023-03-09T03:20:36.508Z,55.06
2023-03-09T03:23:06.525Z,55.23
2023-03-09T03:25:43.224Z,56.09
2023-03-09T03:28:12.809Z,55.64
2023-03-09T03:30:43.086Z,55.42
2023-03-09T03:33:12.806Z,55.31
2023-03-09T03:35:42.767Z,54.92
2023-03-09T03:38:12.529Z,55.10
2023-03-09T03:40:41.461Z,54.87
2023-03-09T03:43:12.143Z,55.07
2023-03-09T03:45:44.868Z,54.79
2023-03-09T03:48:13.389Z,54.85
2023-03-09T03:50:42.016Z,55.04
2023-03-09T03:53:10.407Z,54.78
2023-03-09T03:55:39.237Z,54.62
2023-03-09T03:58:08.018Z,55.24
2023-03-09T04:00:38.061Z,54.85
2023-03-09T04:03:12.623Z,55.05
2023-03-09T04:05:47.417Z,55.53
2023-03-09T04:08:17.256Z,55.47
2023-03-09T04:10:47.639Z,55.40
2023-03-09T04:13:17.801Z,55.67
2023-03-09T04:15:46.986Z,55.89
2023-03-09T04:18:16.910Z,55.79
2023-03-09T04:20:46.632Z,55.44
2023-03-09T04:23:16.299Z,55.79
2023-03-09T04:25:57.685Z,55.97
2023-03-09T04:28:31.821Z,55.87
2023-03-09T04:31:01.306Z,55.72
2023-03-09T04:33:34.715Z,56.26
2023-03-09T04:36:05.768Z,55.91
2023-03-09T04:38:37.577Z,56.05
2023-03-09T04:41:07.985Z,56.00
2023-03-09T04:43:36.883Z,56.31
2023-03-09T04:46:07.364Z,56.05
2023-03-09T04:48:38.583Z,56.63
2023-03-09T04:51:09.738Z,56.45
2023-03-09T04:53:38.301Z,56.00
2023-03-09T04:56:08.342Z,56.14
2023-03-09T04:58:44.059Z,55.98
2023-03-09T05:01:13.123Z,56.03
2023-03-09T05:03:43.390Z,56.45
2023-03-09T05:06:13.342Z,56.29
2023-03-09T05:08:42.829Z,56.27
2023-03-09T05:11:11.150Z,56.35
2023-03-09T05:13:41.591Z,55.85
2023-03-09T05:16:14.646Z,56.05
2023-03-09T05:18:50.405Z,56.16
2023-03-09T05:21:21.051Z,55.69
2023-03-09T05:23:50.583Z,56.07
2023-03-09T05:26:19.309Z,56.10
2023-03-09T05:28:52.296Z,56.40
2023-03-09T05:31:21.813Z,55.65
2023-03-09T05:33:54.059Z,56.08
2023-03-09T05:36:24.421Z,56.38
2023-03-09T05:38:55.176Z,55.88
2023-03-09T05:41:24.338Z,56.18
2023-03-09T05:44:00.334Z,55.73
2023-03-09T05:46:30.570Z,55.89
2023-03-09T05:49:00.349Z,56.04
2023-03-09T05:51:29.585Z,55.96
2023-03-09T05:53:58.212Z,55.99
2023-03-09T05:56:27.753Z,55.15
2023-03-09T05:59:00.562Z,55.81
2023-03-09T06:01:30.415Z,56.04
2023-03-09T06:04:20.396Z,56.01
2023-03-09T06:06:53.644Z,56.15
2023-03-09T06:09:26.841Z,55.40
2023-03-09T06:11:56.020Z,55.77
2023-03-09T06:14:25.324Z,55.82
2023-03-09T06:16:54.904Z,55.56
2023-03-09T06:19:24.523Z,55.13
2023-03-09T06:21:55.790Z,55.14
2023-03-09T06:24:24.591Z,55.40
2023-03-09T06:26:53.986Z,55.47
2023-03-09T06:29:32.107Z,54.75
2023-03-09T06:32:01.468Z,55.11
2023-03-09T06:34:34.863Z,55.56
2023-03-09T06:37:07.368Z,55.45
2023-03-09T06:39:36.140Z,55.50
2023-03-09T06:42:07.006Z,55.68
2023-03-09T06:44:43.886Z,55.59
2023-03-09T06:47:14.164Z,55.66
2023-03-09T06:49:47.017Z,55.37
2023-03-09T06:52:21.599Z,55.11
2023-03-09T06:54:50.460Z,55.17
2023-03-09T06:57:22.125Z,55.52
2023-03-09T06:59:50.812Z,55.21
2023-03-09T07:02:19.369Z,55.39
2023-03-09T07:04:49.510Z,54.76
2023-03-09T07:07:19.691Z,55.39
2023-03-09T07:09:47.927Z,54.99
2023-03-09T07:12:16.756Z,55.52
2023-03-09T07:14:45.778Z,55.16
2023-03-09T07:17:14.845Z,54.78
2023-03-09T07:19:43.301Z,55.22
2023-03-09T07:22:14.113Z,55.60
2023-03-09T07:24:43.301Z,55.90
2023-03-09T07:27:14.370Z,55.62
2023-03-09T07:29:42.829Z,56.28
2023-03-09T07:32:12.298Z,56.01
2023-03-09T07:34:40.810Z,55.71
2023-03-09T07:37:09.494Z,55.55
2023-03-09T07:39:39.353Z,55.10
2023-03-09T07:42:08.691Z,55.09
2023-03-09T07:45:13.545Z,55.83
2023-03-09T07:47:42.881Z,56.23
2023-03-09T07:50:13.105Z,56.22
2023-03-09T07:52:41.706Z,55.76
2023-03-09T07:55:14.180Z,55.57
2023-03-09T07:57:44.388Z,55.76
2023-03-09T08:00:21.700Z,55.65
2023-03-09T08:02:50.100Z,55.82
2023-03-09T08:05:19.650Z,55.52
2023-03-09T08:07:49.622Z,55.55
2023-03-09T08:10:22.445Z,55.77
2023-03-09T08:12:52.455Z,55.59
2023-03-09T08:15:21.719Z,55.89
2023-03-09T08:17:51.142Z,55.73
2023-03-09T08:20:20.361Z,55.89
2023-03-09T08:22:49.300Z,56.29
2023-03-09T08:25:20.996Z,55.46
2023-03-09T08:27:49.814Z,55.55
2023-03-09T08:30:22.053Z,55.54
2023-03-09T08:32:51.686Z,54.94
2023-03-09T08:35:21.666Z,55.25
2023-03-09T08:37:50.836Z,55.61
2023-03-09T08:40:21.745Z,55.11
2023-03-09T08:42:50.554Z,54.45
2023-03-09T08:45:19.017Z,54.98
2023-03-09T08:47:49.284Z,54.75
2023-03-09T08:50:22.953Z,54.55
2023-03-09T08:52:52.303Z,54.61
2023-03-09T08:55:22.946Z,54.55
2023-03-09T08:57:52.766Z,54.10
2023-03-09T09:00:23.001Z,53.82
2023-03-09T09:02:52.502Z,54.82
2023-03-09T09:05:22.344Z,54.26
2023-03-09T09:07:51.600Z,54.38
2023-03-09T09:10:34.845Z,53.61
2023-03-09T09:13:05.546Z,53.67
2023-03-09T09:15:34.896Z,53.63
2023-03-09T09:18:03.941Z,53.51
2023-03-09T09:20:32.374Z,53.70
2023-03-09T09:23:00.920Z,53.71
2023-03-09T09:25:30.838Z,53.06
2023-03-09T09:27:59.106Z,53.62
2023-03-09T09:30:28.058Z,52.89
2023-03-09T09:32:56.840Z,52.89
2023-03-09T09:35:26.029Z,53.01
2023-03-09T09:37:55.939Z,52.54
2023-03-09T09:40:26.050Z,52.74
2023-03-09T09:42:57.971Z,52.49
2023-03-09T09:45:32.251Z,53.00
2023-03-09T09:48:03.602Z,52.84
2023-03-09T09:50:45.240Z,52.20
2023-03-09T09:53:24.195Z,52.02
2023-03-09T09:55:54.799Z,52.76
2023-03-09T09:58:35.018Z,52.45
2023-03-09T10:01:12.529Z,53.08
2023-03-09T10:03:47.811Z,53.01
2023-03-09T10:06:19.880Z,52.47
2023-03-09T10:08:51.170Z,52.49
2023-03-09T10:11:25.959Z,52.02
2023-03-09T10:14:01.739Z,52.03
2023-03-09T10:16:36.757Z,52.16
2023-03-09T10:19:16.234Z,52.30
2023-03-09T10:21:51.111Z,52.59
2023-03-09T10:24:25.011Z,51.86
2023-03-09T10:26:59.479Z,51.61
2023-03-09T10:29:42.489Z,52.25
2023-03-09T10:32:18.114Z,51.31
2023-03-09T10:34:55.840Z,51.02
2023-03-09T10:37:27.103Z,51.18
2023-03-09T10:39:56.904Z,51.23
2023-03-09T10:42:28.400Z,50.73
2023-03-09T10:45:10.494Z,51.07
2023-03-09T10:48:00.960Z,52.30
2023-03-09T10:50:33.146Z,52.05
2023-03-09T10:53:29.775Z,51.61
2023-03-09T10:56:07.135Z,51.27
2023-03-09T10:58:36.655Z,50.42
2023-03-09T11:01:21.004Z,50.60
2023-03-09T11:03:49.393Z,51.20
2023-03-09T11:06:33.937Z,50.75
2023-03-09T11:09:15.846Z,51.28
2023-03-09T11:11:48.393Z,51.38
2023-03-09T11:14:28.463Z,51.22
2023-03-09T11:17:02.116Z,51.50
2023-03-09T11:19:32.529Z,50.79
2023-03-09T11:22:12.379Z,50.36
2023-03-09T11:24:46.242Z,50.67
2023-03-09T11:27:21.156Z,50.15
2023-03-09T11:29:56.787Z,50.67
2023-03-09T11:32:26.546Z,49.61
2023-03-09T11:34:55.827Z,49.78
2023-03-09T11:37:31.056Z,49.99
2023-03-09T11:40:08.839Z,49.11
2023-03-09T11:42:42.944Z,49.87
2023-03-09T11:45:20.786Z,50.53
2023-03-09T11:47:57.226Z,50.36
2023-03-09T11:50:33.096Z,50.56
2023-03-09T11:53:08.046Z,50.47
2023-03-09T11:55:40.494Z,50.81
2023-03-09T11:58:15.412Z,50.81
2023-03-09T12:00:48.113Z,50.33
2023-03-09T12:03:21.251Z,51.14
2023-03-09T12:05:54.998Z,50.91
2023-03-09T12:08:31.705Z,50.52
2023-03-09T12:11:08.673Z,50.50
2023-03-09T12:13:41.152Z,50.33
2023-03-09T12:16:20.431Z,49.90
2023-03-09T12:19:01.220Z,49.30
2023-03-09T12:21:33.792Z,49.57
2023-03-09T12:24:20.506Z,50.30
2023-03-09T12:27:00.179Z,50.18
2023-03-09T12:29:35.582Z,49.59
2023-03-09T12:32:42.222Z,49.52
2023-03-09T12:35:44.893Z,49.43
2023-03-09T12:38:23.900Z,49.74
2023-03-09T12:40:52.985Z,50.03
2023-03-09T12:43:53.794Z,50.06
2023-03-09T12:47:00.964Z,49.95
2023-03-09T12:49:35.245Z,48.87
2023-03-09T12:52:46.957Z,50.11
2023-03-09T12:55:20.852Z,49.56
2023-03-09T12:57:51.954Z,49.57
2023-03-09T13:00:31.059Z,49.14
2023-03-09T13:03:05.852Z,49.23
2023-03-09T13:05:44.312Z,49.11
2023-03-09T13:08:29.617Z,49.60
2023-03-09T13:11:33.207Z,49.05
2023-03-09T13:14:03.930Z,50.16
2023-03-09T13:16:52.898Z,49.93
2023-03-09T13:19:56.766Z,50.03
2023-03-09T13:22:43.800Z,50.29
2023-03-09T13:25:34.873Z,49.26
2023-03-09T13:28:23.378Z,50.00
2023-03-09T13:31:00.200Z,50.20
2023-03-09T13:33:32.011Z,49.77
2023-03-09T13:36:24.698Z,50.34
2023-03-09T13:38:59.044Z,49.96
2023-03-09T13:41:30.056Z,50.06
2023-03-09T13:44:00.372Z,50.65
2023-03-09T13:46:32.800Z,49.75
2023-03-09T13:49:09.018Z,50.97
2023-03-09T13:51:50.533Z,50.71
2023-03-09T13:54:31.589Z,51.07
2023-03-09T13:57:05.375Z,50.87
2023-03-09T13:59:55.499Z,51.48
2023-03-09T14:02:25.727Z,51.38
2023-03-09T14:05:42.426Z,51.30
2023-03-09T14:07:58.215Z,51.34
2023-03-09T14:10:30.768Z,51.64
2023-03-09T14:13:03.217Z,51.81
2023-03-09T14:15:37.864Z,51.77
2023-03-09T14:18:07.046Z,51.63
2023-03-09T14:20:41.104Z,52.38
2023-03-09T14:23:20.957Z,52.65
2023-03-09T14:25:50.969Z,52.29
2023-03-09T14:28:27.095Z,52.74
2023-03-09T14:31:15.771Z,52.01
2023-03-09T14:33:59.686Z,51.85
2023-03-09T14:36:31.054Z,52.49
2023-03-09T14:39:02.312Z,52.74
2023-03-09T14:41:32.500Z,52.40
2023-03-09T14:44:01.002Z,53.06
2023-03-09T14:46:32.037Z,52.55
2023-03-09T14:49:04.676Z,52.90
2023-03-09T14:51:35.838Z,53.28
2023-03-09T14:54:12.463Z,52.97
2023-03-09T14:56:40.953Z,53.16
2023-03-09T14:59:13.332Z,53.85
2023-03-09T15:01:58.766Z,53.72
2023-03-09T15:04:29.922Z,53.40
2023-03-09T15:06:59.086Z,53.47
2023-03-09T15:09:27.323Z,53.79
2023-03-09T15:11:58.937Z,54.21
2023-03-09T15:14:31.380Z,53.74
2023-03-09T15:17:04.071Z,53.37
2023-03-09T15:19:32.860Z,53.91
2023-03-09T15:22:03.698Z,54.41
2023-03-09T15:24:33.684Z,54.54
2023-03-09T15:27:04.046Z,54.56
2023-03-09T15:29:33.417Z,54.74
2023-03-09T15:32:08.405Z,54.19
2023-03-09T15:34:39.035Z,54.76
2023-03-09T15:37:08.299Z,54.74
2023-03-09T15:39:37.645Z,55.09
2023-03-09T15:42:06.603Z,55.21
2023-03-09T15:44:36.761Z,55.66
2023-03-09T15:47:07.057Z,55.80
2023-03-09T15:49:35.923Z,55.31
2023-03-09T15:52:04.392Z,55.46
2023-03-09T15:54:33.559Z,55.56
2023-03-09T15:57:02.032Z,55.92
2023-03-09T15:59:30.455Z,56.35
2023-03-09T16:02:00.123Z,57.06
2023-03-09T16:04:31.860Z,57.86
2023-03-09T16:07:02.700Z,58.10
2023-03-09T16:09:32.507Z,58.30
2023-03-09T16:12:01.839Z,58.49
2023-03-09T16:14:32.437Z,57.68
2023-03-09T16:17:02.085Z,57.39
2023-03-09T16:19:32.805Z,57.46
2023-03-09T16:22:01.332Z,58.19
2023-03-09T16:24:30.350Z,58.32
2023-03-09T16:26:59.491Z,58.64
2023-03-09T16:29:28.379Z,58.29
2023-03-09T16:32:00.975Z,58.38
2023-03-09T16:34:35.825Z,58.46
2023-03-09T16:37:06.606Z,59.00
2023-03-09T16:39:35.357Z,58.76
2023-03-09T16:42:04.828Z,60.40
2023-03-09T16:44:34.299Z,58.78
2023-03-09T16:47:14.018Z,59.31
2023-03-09T16:49:45.360Z,59.35
2023-03-09T16:52:14.174Z,59.84
2023-03-09T16:54:43.207Z,59.72
2023-03-09T16:57:12.552Z,59.65
2023-03-09T16:59:40.902Z,59.53
2023-03-09T17:02:12.597Z,59.48
2023-03-09T17:04:40.971Z,59.05
2023-03-09T17:07:12.396Z,59.47
2023-03-09T17:09:41.187Z,59.74
2023-03-09T17:12:11.697Z,59.85
2023-03-09T17:14:40.188Z,60.14
2023-03-09T17:17:10.248Z,60.27
2023-03-09T17:19:39.193Z,60.39
2023-03-09T17:22:08.127Z,59.21
2023-03-09T17:24:39.453Z,59.98
2023-03-09T17:27:08.015Z,59.75
2023-03-09T17:29:36.601Z,59.22
2023-03-09T17:32:08.630Z,60.35
2023-03-09T17:34:37.857Z,59.35
2023-03-09T17:37:06.605Z,60.31
2023-03-09T17:39:35.327Z,60.04
2023-03-09T17:42:06.614Z,59.83
2023-03-09T17:44:39.413Z,60.66
2023-03-09T17:47:09.883Z,60.82
2023-03-09T17:49:38.621Z,60.75
2023-03-09T17:52:08.310Z,60.54
2023-03-09T17:54:36.653Z,60.38
2023-03-09T17:57:09.241Z,60.43
2023-03-09T17:59:37.869Z,60.29
2023-03-09T18:02:08.262Z,59.93
2023-03-09T18:04:37.598Z,60.04
2023-03-09T18:07:18.042Z,60.11
2023-03-09T18:09:47.033Z,60.61
2023-03-09T18:12:16.847Z,60.31
2023-03-09T18:14:46.194Z,60.91
2023-03-09T18:17:15.214Z,60.68
2023-03-09T18:19:43.340Z,60.41
2023-03-09T18:22:14.864Z,60.55
2023-03-09T18:24:44.151Z,61.18
2023-03-09T18:27:13.842Z,60.36
2023-03-09T18:29:44.915Z,59.96
2023-03-09T18:32:13.258Z,60.16
2023-03-09T18:34:44.748Z,61.04
2023-03-09T18:37:12.956Z,60.11
2023-03-09T18:39:41.205Z,60.17
2023-03-09T18:42:11.048Z,60.82
2023-03-09T18:44:39.237Z,61.38
2023-03-09T18:47:10.210Z,61.21
2023-03-09T18:49:38.305Z,61.49
2023-03-09T18:52:07.922Z,61.60
2023-03-09T18:54:36.531Z,61.73
2023-03-09T18:57:05.928Z,61.31
2023-03-09T18:59:34.442Z,61.74
2023-03-09T19:02:04.633Z,60.72
2023-03-09T19:04:34.529Z,60.78
2023-03-09T19:07:02.866Z,60.66
2023-03-09T19:09:31.893Z,61.00
2023-03-09T19:12:00.705Z,60.67
2023-03-09T19:14:29.726Z,60.95
2023-03-09T19:16:58.043Z,61.45
2023-03-09T19:19:26.392Z,61.35
2023-03-09T19:21:56.281Z,61.11
2023-03-09T19:24:24.561Z,61.13
2023-03-09T19:26:53.377Z,61.29
2023-03-09T19:29:21.843Z,60.89
2023-03-09T19:31:50.160Z,61.24
2023-03-09T19:34:18.418Z,61.61
2023-03-09T19:36:46.957Z,62.04
2023-03-09T19:39:16.771Z,61.84
2023-03-09T19:41:44.760Z,61.68
2023-03-09T19:44:13.024Z,61.60
2023-03-09T19:46:43.777Z,61.48
2023-03-09T19:49:12.874Z,62.02
2023-03-09T19:51:41.599Z,62.34
2023-03-09T19:54:13.407Z,63.17
2023-03-09T19:56:44.174Z,62.46
2023-03-09T19:59:16.014Z,62.81
2023-03-09T20:01:46.935Z,63.12
2023-03-09T20:04:18.776Z,63.28
2023-03-09T20:06:50.339Z,63.15
2023-03-09T20:09:19.316Z,63.62
2023-03-09T20:11:49.358Z,63.12
2023-03-09T20:14:17.811Z,63.56
2023-03-09T20:16:46.579Z,63.46
2023-03-09T20:19:16.650Z,62.96
2023-03-09T20:21:45.459Z,62.41
2023-03-09T20:24:16.737Z,62.74
2023-03-09T20:26:47.095Z,62.83
2023-03-09T20:29:18.309Z,63.12
2023-03-09T20:31:49.627Z,63.12
2023-03-09T20:34:18.921Z,64.10
2023-03-09T20:36:47.115Z,63.48
2023-03-09T20:39:15.744Z,63.55
2023-03-09T20:41:44.462Z,63.34
2023-03-09T20:44:13.327Z,63.82
2023-03-09T20:46:43.044Z,64.02
2023-03-09T20:49:12.367Z,63.88
2023-03-09T20:51:40.700Z,63.20
2023-03-09T20:54:09.870Z,63.13
2023-03-09T20:56:38.307Z,62.84
2023-03-09T20:59:07.375Z,63.24
2023-03-09T21:01:35.825Z,63.16
2023-03-09T21:04:06.639Z,63.43
2023-03-09T21:06:35.069Z,63.78
2023-03-09T21:09:03.764Z,64.15
2023-03-09T21:11:32.847Z,63.92
2023-03-09T21:14:03.927Z,63.83
2023-03-09T21:16:33.201Z,63.41
2023-03-09T21:19:04.817Z,63.56
2023-03-09T21:21:36.310Z,63.96
2023-03-09T21:24:05.444Z,63.27
2023-03-09T21:26:34.514Z,63.26
2023-03-09T21:29:04.650Z,63.62
2023-03-09T21:31:33.531Z,64.05
2023-03-09T21:34:02.368Z,63.59
2023-03-09T21:36:30.666Z,63.74
2023-03-09T21:39:00.813Z,63.39
2023-03-09T21:41:29.557Z,63.81
2023-03-09T21:43:58.392Z,63.31
2023-03-09T21:46:28.116Z,63.54
2023-03-09T21:48:57.222Z,63.69
2023-03-09T21:51:26.390Z,63.66
2023-03-09T21:53:57.320Z,63.60
2023-03-09T21:56:27.501Z,63.77
2023-03-09T21:58:57.958Z,63.78
2023-03-09T22:01:28.136Z,63.56
2023-03-09T22:03:57.014Z,63.70
2023-03-09T22:06:27.700Z,63.11
2023-03-09T22:08:56.753Z,62.83
2023-03-09T22:11:29.530Z,62.73
2023-03-09T22:13:57.882Z,63.90
2023-03-09T22:16:29.044Z,63.23
2023-03-09T22:18:59.790Z,63.31
2023-03-09T22:21:28.699Z,63.06
2023-03-09T22:23:57.520Z,63.44
2023-03-09T22:26:27.457Z,64.01
2023-03-09T22:28:56.876Z,64.38
2023-03-09T22:31:25.863Z,63.40
2023-03-09T22:33:58.635Z,63.05
2023-03-09T22:36:27.285Z,63.11
2023-03-09T22:38:55.816Z,63.52
2023-03-09T22:41:26.526Z,64.01
2023-03-09T22:43:56.844Z,63.67
2023-03-09T22:46:27.474Z,63.52
2023-03-09T22:48:56.422Z,62.83
2023-03-09T22:51:26.504Z,63.08
2023-03-09T22:53:56.853Z,62.93
2023-03-09T22:56:26.511Z,63.86
2023-03-09T22:58:56.903Z,63.59
2023-03-09T23:01:26.862Z,63.80
2023-03-09T23:03:57.721Z,64.46
2023-03-09T23:06:28.469Z,65.07
2023-03-09T23:08:58.289Z,65.31
2023-03-09T23:11:28.393Z,65.18
2023-03-09T23:13:58.246Z,64.83
2023-03-09T23:16:26.701Z,64.93
2023-03-09T23:18:55.697Z,64.76
2023-03-09T23:21:24.740Z,65.21
2023-03-09T23:23:53.610Z,65.22
2023-03-09T23:26:22.884Z,65.40
2023-03-09T23:28:51.892Z,65.34
2023-03-09T23:31:22.264Z,65.33
2023-03-09T23:33:51.011Z,65.33
2023-03-09T23:36:23.110Z,65.46
2023-03-09T23:38:53.775Z,65.36
2023-03-09T23:41:22.072Z,65.71
2023-03-09T23:43:50.289Z,65.55
2023-03-09T23:46:19.838Z,65.51
2023-03-09T23:48:51.891Z,65.40
2023-03-09T23:51:22.228Z,64.62
2023-03-09T23:53:50.646Z,64.73
2023-03-09T23:56:19.833Z,64.82
2023-03-09T23:58:49.818Z,65.17
